sensor_id;sensor_type;location;lat;lon;timestamp;P1;durP1;ratioP1;P2;durP2;ratioP2
35959;SDS011;22043;50.970;7.192;2022-09-03T00:05:34;3.72;;;0.90;;
35959;SDS011;22043;50.970;7.192;2022-09-03T00:08:15;3.67;;;0.90;;
35959;SDS011;22043;50.970;7.192;2022-09-03T00:10:52;2.10;;;0.80;;
35959;SDS011;22043;50.970;7.192;2022-09-03T00:13:38;1.40;;;0.73;;
35959;SDS011;22043;50.970;7.192;2022-09-03T00:16:10;2.15;;;0.80;;
35959;SDS011;22043;50.970;7.192;2022-09-03T00:18:44;1.85;;;0.80;;
35959;SDS011;22043;50.970;7.192;2022-09-03T00:21:19;1.67;;;0.80;;
35959;SDS011;22043;50.970;7.192;2022-09-03T00:23:56;1.45;;;0.70;;
35959;SDS011;22043;50.970;7.192;2022-09-03T00:26:26;2.17;;;0.60;;
35959;SDS011;22043;50.970;7.192;2022-09-03T00:33:59;1.85;;;0.68;;
35959;SDS011;22043;50.970;7.192;2022-09-03T00:36:35;1.05;;;0.60;;
35959;SDS011;22043;50.970;7.192;2022-09-03T00:39:12;5.20;;;0.82;;
35959;SDS011;22043;50.970;7.192;2022-09-03T00:44:32;2.15;;;0.80;;
35959;SDS011;22043;50.970;7.192;2022-09-03T00:52:37;2.47;;;0.80;;
35959;SDS011;22043;50.970;7.192;2022-09-03T01:00:38;1.20;;;0.60;;
35959;SDS011;22043;50.970;7.192;2022-09-03T01:03:08;1.65;;;0.60;;
35959;SDS011;22043;50.970;7.192;2022-09-03T01:05:59;2.72;;;0.60;;
35959;SDS011;22043;50.970;7.192;2022-09-03T01:17:17;1.75;;;0.70;;
35959;SDS011;22043;50.970;7.192;2022-09-03T01:30:56;2.05;;;0.80;;
35959;SDS011;22043;50.970;7.192;2022-09-03T01:33:27;3.40;;;0.80;;
35959;SDS011;22043;50.970;7.192;2022-09-03T01:41:42;2.85;;;0.70;;
35959;SDS011;22043;50.970;7.192;2022-09-03T01:52:29;2.05;;;0.77;;
35959;SDS011;22043;50.970;7.192;2022-09-03T01:58:20;1.30;;;0.75;;
35959;SDS011;22043;50.970;7.192;2022-09-03T02:00:49;1.45;;;0.70;;
35959;SDS011;22043;50.970;7.192;2022-09-03T02:03:21;3.97;;;0.98;;
35959;SDS011;22043;50.970;7.192;2022-09-03T02:05:49;1.85;;;0.70;;
35959;SDS011;22043;50.970;7.192;2022-09-03T02:08:17;2.03;;;0.70;;
35959;SDS011;22043;50.970;7.192;2022-09-03T02:10:51;2.85;;;0.82;;
35959;SDS011;22043;50.970;7.192;2022-09-03T02:13:21;2.45;;;0.85;;
35959;SDS011;22043;50.970;7.192;2022-09-03T02:15:55;0.73;;;0.50;;
35959;SDS011;22043;50.970;7.192;2022-09-03T02:18:32;3.35;;;1.67;;
35959;SDS011;22043;50.970;7.192;2022-09-03T02:21:01;1.23;;;0.57;;
35959;SDS011;22043;50.970;7.192;2022-09-03T02:23:27;2.50;;;0.70;;
35959;SDS011;22043;50.970;7.192;2022-09-03T02:25:56;1.33;;;0.68;;
35959;SDS011;22043;50.970;7.192;2022-09-03T02:28:25;1.95;;;0.68;;
35959;SDS011;22043;50.970;7.192;2022-09-03T02:30:52;3.60;;;0.65;;
35959;SDS011;22043;50.970;7.192;2022-09-03T02:33:18;1.23;;;0.52;;
35959;SDS011;22043;50.970;7.192;2022-09-03T02:35:44;1.42;;;0.70;;
35959;SDS011;22043;50.970;7.192;2022-09-03T02:38:11;1.08;;;0.55;;
35959;SDS011;22043;50.970;7.192;2022-09-03T02:40:41;2.20;;;0.60;;
35959;SDS011;22043;50.970;7.192;2022-09-03T02:43:08;3.78;;;0.70;;
35959;SDS011;22043;50.970;7.192;2022-09-03T02:45:40;2.15;;;0.77;;
35959;SDS011;22043;50.970;7.192;2022-09-03T02:48:10;2.45;;;0.70;;
35959;SDS011;22043;50.970;7.192;2022-09-03T02:50:41;1.42;;;0.60;;
35959;SDS011;22043;50.970;7.192;2022-09-03T02:53:07;3.33;;;0.82;;
35959;SDS011;22043;50.970;7.192;2022-09-03T02:55:33;3.97;;;0.82;;
35959;SDS011;22043;50.970;7.192;2022-09-03T02:57:59;1.80;;;0.70;;
35959;SDS011;22043;50.970;7.192;2022-09-03T03:00:25;4.22;;;1.20;;
35959;SDS011;22043;50.970;7.192;2022-09-03T03:02:54;1.67;;;0.65;;
35959;SDS011;22043;50.970;7.192;2022-09-03T03:05:29;1.58;;;0.70;;
35959;SDS011;22043;50.970;7.192;2022-09-03T03:08:03;2.35;;;0.80;;
35959;SDS011;22043;50.970;7.192;2022-09-03T03:10:29;2.10;;;0.90;;
35959;SDS011;22043;50.970;7.192;2022-09-03T03:12:55;2.33;;;0.70;;
35959;SDS011;22043;50.970;7.192;2022-09-03T03:15:20;0.88;;;0.60;;
35959;SDS011;22043;50.970;7.192;2022-09-03T03:17:46;4.40;;;0.70;;
35959;SDS011;22043;50.970;7.192;2022-09-03T03:20:12;1.58;;;0.70;;
35959;SDS011;22043;50.970;7.192;2022-09-03T03:22:38;2.63;;;0.70;;
35959;SDS011;22043;50.970;7.192;2022-09-03T03:25:04;1.38;;;0.63;;
35959;SDS011;22043;50.970;7.192;2022-09-03T03:27:30;1.38;;;0.50;;
35959;SDS011;22043;50.970;7.192;2022-09-03T03:29:56;3.20;;;0.80;;
35959;SDS011;22043;50.970;7.192;2022-09-03T03:32:22;1.95;;;0.50;;
35959;SDS011;22043;50.970;7.192;2022-09-03T03:34:47;2.08;;;0.90;;
35959;SDS011;22043;50.970;7.192;2022-09-03T03:37:13;1.40;;;0.57;;
35959;SDS011;22043;50.970;7.192;2022-09-03T03:39:39;1.20;;;0.50;;
35959;SDS011;22043;50.970;7.192;2022-09-03T03:42:04;1.00;;;0.60;;
35959;SDS011;22043;50.970;7.192;2022-09-03T03:44:30;1.08;;;0.45;;
35959;SDS011;22043;50.970;7.192;2022-09-03T03:46:56;1.52;;;0.65;;
35959;SDS011;22043;50.970;7.192;2022-09-03T03:49:21;2.00;;;0.70;;
35959;SDS011;22043;50.970;7.192;2022-09-03T03:51:47;2.17;;;0.60;;
35959;SDS011;22043;50.970;7.192;2022-09-03T03:54:13;1.42;;;0.70;;
35959;SDS011;22043;50.970;7.192;2022-09-03T03:56:38;1.60;;;0.75;;
35959;SDS011;22043;50.970;7.192;2022-09-03T03:59:04;1.98;;;0.60;;
35959;SDS011;22043;50.970;7.192;2022-09-03T04:01:30;2.22;;;0.60;;
35959;SDS011;22043;50.970;7.192;2022-09-03T04:03:56;2.17;;;0.80;;
35959;SDS011;22043;50.970;7.192;2022-09-03T04:08:49;1.65;;;0.75;;
35959;SDS011;22043;50.970;7.192;2022-09-03T04:11:18;1.08;;;0.60;;
35959;SDS011;22043;50.970;7.192;2022-09-03T04:13:46;3.95;;;0.70;;
35959;SDS011;22043;50.970;7.192;2022-09-03T04:16:16;2.08;;;0.77;;
35959;SDS011;22043;50.970;7.192;2022-09-03T04:18:43;1.55;;;0.60;;
35959;SDS011;22043;50.970;7.192;2022-09-03T04:21:10;1.77;;;0.88;;
35959;SDS011;22043;50.970;7.192;2022-09-03T04:23:39;1.80;;;0.60;;
35959;SDS011;22043;50.970;7.192;2022-09-03T04:26:06;2.10;;;0.70;;
35959;SDS011;22043;50.970;7.192;2022-09-03T04:28:33;2.15;;;0.80;;
35959;SDS011;22043;50.970;7.192;2022-09-03T04:31:07;3.10;;;0.70;;
35959;SDS011;22043;50.970;7.192;2022-09-03T04:33:34;2.03;;;0.70;;
35959;SDS011;22043;50.970;7.192;2022-09-03T04:38:28;1.83;;;0.70;;
35959;SDS011;22043;50.970;7.192;2022-09-03T04:40:56;1.45;;;0.68;;
35959;SDS011;22043;50.970;7.192;2022-09-03T04:43:23;2.28;;;0.80;;
35959;SDS011;22043;50.970;7.192;2022-09-03T04:45:50;3.55;;;1.08;;
35959;SDS011;22043;50.970;7.192;2022-09-03T04:48:15;0.93;;;0.50;;
35959;SDS011;22043;50.970;7.192;2022-09-03T04:50:41;1.08;;;0.50;;
35959;SDS011;22043;50.970;7.192;2022-09-03T04:53:06;2.63;;;0.80;;
35959;SDS011;22043;50.970;7.192;2022-09-03T04:55:35;2.05;;;0.75;;
35959;SDS011;22043;50.970;7.192;2022-09-03T04:58:02;2.00;;;0.90;;
35959;SDS011;22043;50.970;7.192;2022-09-03T05:00:29;1.90;;;0.68;;
35959;SDS011;22043;50.970;7.192;2022-09-03T05:02:54;2.05;;;0.60;;
35959;SDS011;22043;50.970;7.192;2022-09-03T05:05:24;1.85;;;0.75;;
35959;SDS011;22043;50.970;7.192;2022-09-03T05:07:49;3.00;;;0.73;;
35959;SDS011;22043;50.970;7.192;2022-09-03T05:10:15;3.08;;;0.88;;
35959;SDS011;22043;50.970;7.192;2022-09-03T05:12:56;3.63;;;1.05;;
35959;SDS011;22043;50.970;7.192;2022-09-03T05:15:25;1.00;;;0.50;;
35959;SDS011;22043;50.970;7.192;2022-09-03T05:17:55;2.15;;;0.70;;
35959;SDS011;22043;50.970;7.192;2022-09-03T05:20:22;3.47;;;0.60;;
35959;SDS011;22043;50.970;7.192;2022-09-03T05:22:49;2.00;;;0.80;;
35959;SDS011;22043;50.970;7.192;2022-09-03T05:25:15;1.83;;;0.63;;
35959;SDS011;22043;50.970;7.192;2022-09-03T05:27:40;2.60;;;0.63;;
35959;SDS011;22043;50.970;7.192;2022-09-03T05:30:07;1.42;;;0.50;;
35959;SDS011;22043;50.970;7.192;2022-09-03T05:32:33;2.15;;;0.80;;
35959;SDS011;22043;50.970;7.192;2022-09-03T05:34:59;2.67;;;0.70;;
35959;SDS011;22043;50.970;7.192;2022-09-03T05:37:24;3.00;;;0.88;;
35959;SDS011;22043;50.970;7.192;2022-09-03T05:39:50;5.40;;;0.80;;
35959;SDS011;22043;50.970;7.192;2022-09-03T05:42:16;1.30;;;0.50;;
35959;SDS011;22043;50.970;7.192;2022-09-03T05:44:41;2.95;;;0.82;;
35959;SDS011;22043;50.970;7.192;2022-09-03T05:47:08;1.60;;;0.90;;
35959;SDS011;22043;50.970;7.192;2022-09-03T05:49:34;1.45;;;0.60;;
35959;SDS011;22043;50.970;7.192;2022-09-03T05:52:00;2.33;;;0.90;;
35959;SDS011;22043;50.970;7.192;2022-09-03T05:54:27;2.60;;;0.70;;
35959;SDS011;22043;50.970;7.192;2022-09-03T05:56:52;3.90;;;0.80;;
35959;SDS011;22043;50.970;7.192;2022-09-03T05:59:18;5.25;;;0.70;;
35959;SDS011;22043;50.970;7.192;2022-09-03T06:01:44;2.92;;;0.75;;
35959;SDS011;22043;50.970;7.192;2022-09-03T06:04:14;1.30;;;0.60;;
35959;SDS011;22043;50.970;7.192;2022-09-03T06:06:41;2.38;;;0.70;;
35959;SDS011;22043;50.970;7.192;2022-09-03T06:09:09;5.63;;;0.70;;
35959;SDS011;22043;50.970;7.192;2022-09-03T06:11:38;1.95;;;0.73;;
35959;SDS011;22043;50.970;7.192;2022-09-03T06:14:08;3.80;;;0.83;;
35959;SDS011;22043;50.970;7.192;2022-09-03T06:16:39;6.18;;;0.80;;
35959;SDS011;22043;50.970;7.192;2022-09-03T06:19:07;2.65;;;0.80;;
35959;SDS011;22043;50.970;7.192;2022-09-03T06:24:10;1.75;;;0.70;;
35959;SDS011;22043;50.970;7.192;2022-09-03T06:26:44;5.18;;;1.35;;
35959;SDS011;22043;50.970;7.192;2022-09-03T06:29:10;2.67;;;0.73;;
35959;SDS011;22043;50.970;7.192;2022-09-03T06:31:37;1.13;;;0.50;;
35959;SDS011;22043;50.970;7.192;2022-09-03T06:34:03;2.17;;;0.80;;
35959;SDS011;22043;50.970;7.192;2022-09-03T06:36:30;5.10;;;1.50;;
35959;SDS011;22043;50.970;7.192;2022-09-03T06:38:56;2.80;;;0.70;;
35959;SDS011;22043;50.970;7.192;2022-09-03T06:41:23;3.72;;;0.88;;
35959;SDS011;22043;50.970;7.192;2022-09-03T06:43:52;0.75;;;0.40;;
35959;SDS011;22043;50.970;7.192;2022-09-03T06:46:31;1.55;;;0.60;;
35959;SDS011;22043;50.970;7.192;2022-09-03T06:48:58;2.92;;;0.98;;
35959;SDS011;22043;50.970;7.192;2022-09-03T06:51:25;1.48;;;0.60;;
35959;SDS011;22043;50.970;7.192;2022-09-03T06:56:23;4.20;;;0.60;;
35959;SDS011;22043;50.970;7.192;2022-09-03T06:58:56;2.47;;;0.75;;
35959;SDS011;22043;50.970;7.192;2022-09-03T07:01:29;3.67;;;0.70;;
35959;SDS011;22043;50.970;7.192;2022-09-03T07:03:57;4.28;;;0.88;;
35959;SDS011;22043;50.970;7.192;2022-09-03T07:06:25;2.17;;;0.68;;
35959;SDS011;22043;50.970;7.192;2022-09-03T07:11:23;2.70;;;0.70;;
35959;SDS011;22043;50.970;7.192;2022-09-03T07:13:51;1.70;;;0.70;;
35959;SDS011;22043;50.970;7.192;2022-09-03T07:16:25;2.40;;;0.68;;
35959;SDS011;22043;50.970;7.192;2022-09-03T07:19:01;1.85;;;0.70;;
35959;SDS011;22043;50.970;7.192;2022-09-03T07:21:29;1.52;;;0.77;;
35959;SDS011;22043;50.970;7.192;2022-09-03T07:23:57;1.20;;;0.65;;
35959;SDS011;22043;50.970;7.192;2022-09-03T07:26:25;1.40;;;0.70;;
35959;SDS011;22043;50.970;7.192;2022-09-03T07:28:52;3.03;;;0.60;;
35959;SDS011;22043;50.970;7.192;2022-09-03T07:34:02;1.98;;;0.95;;
35959;SDS011;22043;50.970;7.192;2022-09-03T07:36:30;2.05;;;0.80;;
35959;SDS011;22043;50.970;7.192;2022-09-03T07:38:59;2.70;;;0.90;;
35959;SDS011;22043;50.970;7.192;2022-09-03T07:41:25;1.85;;;0.70;;
35959;SDS011;22043;50.970;7.192;2022-09-03T07:43:51;3.88;;;0.70;;
35959;SDS011;22043;50.970;7.192;2022-09-03T07:46:18;2.03;;;0.80;;
35959;SDS011;22043;50.970;7.192;2022-09-03T07:48:48;2.42;;;0.80;;
35959;SDS011;22043;50.970;7.192;2022-09-03T07:51:16;1.45;;;0.70;;
35959;SDS011;22043;50.970;7.192;2022-09-03T07:53:44;1.90;;;0.65;;
35959;SDS011;22043;50.970;7.192;2022-09-03T07:56:11;1.20;;;0.60;;
35959;SDS011;22043;50.970;7.192;2022-09-03T07:58:37;1.38;;;0.70;;
35959;SDS011;22043;50.970;7.192;2022-09-03T08:01:05;0.95;;;0.60;;
35959;SDS011;22043;50.970;7.192;2022-09-03T08:03:36;1.38;;;0.68;;
35959;SDS011;22043;50.970;7.192;2022-09-03T08:06:04;1.52;;;0.82;;
35959;SDS011;22043;50.970;7.192;2022-09-03T08:08:31;1.23;;;0.43;;
35959;SDS011;22043;50.970;7.192;2022-09-03T08:11:04;1.35;;;0.60;;
35959;SDS011;22043;50.970;7.192;2022-09-03T08:13:34;2.55;;;0.70;;
35959;SDS011;22043;50.970;7.192;2022-09-03T08:15:59;2.22;;;0.90;;
35959;SDS011;22043;50.970;7.192;2022-09-03T08:18:26;2.95;;;0.75;;
35959;SDS011;22043;50.970;7.192;2022-09-03T08:21:11;3.05;;;0.70;;
35959;SDS011;22043;50.970;7.192;2022-09-03T08:23:40;1.27;;;0.60;;
35959;SDS011;22043;50.970;7.192;2022-09-03T08:26:07;2.05;;;0.90;;
35959;SDS011;22043;50.970;7.192;2022-09-03T08:28:33;2.15;;;0.77;;
35959;SDS011;22043;50.970;7.192;2022-09-03T08:31:04;1.85;;;0.70;;
35959;SDS011;22043;50.970;7.192;2022-09-03T08:33:43;4.30;;;0.82;;
35959;SDS011;22043;50.970;7.192;2022-09-03T08:36:14;1.15;;;0.50;;
35959;SDS011;22043;50.970;7.192;2022-09-03T08:38:42;1.52;;;0.70;;
35959;SDS011;22043;50.970;7.192;2022-09-03T08:41:44;1.73;;;0.70;;
35959;SDS011;22043;50.970;7.192;2022-09-03T08:47:12;1.55;;;0.70;;
35959;SDS011;22043;50.970;7.192;2022-09-03T08:49:55;2.38;;;0.70;;
35959;SDS011;22043;50.970;7.192;2022-09-03T08:54:51;3.00;;;0.85;;
35959;SDS011;22043;50.970;7.192;2022-09-03T08:57:24;2.30;;;0.80;;
35959;SDS011;22043;50.970;7.192;2022-09-03T08:59:50;2.72;;;0.70;;
35959;SDS011;22043;50.970;7.192;2022-09-03T09:05:03;3.70;;;0.90;;
35959;SDS011;22043;50.970;7.192;2022-09-03T09:10:15;1.58;;;0.60;;
35959;SDS011;22043;50.970;7.192;2022-09-03T09:18:12;8.98;;;1.02;;
35959;SDS011;22043;50.970;7.192;2022-09-03T09:20:53;2.47;;;0.70;;
35959;SDS011;22043;50.970;7.192;2022-09-03T09:23:32;2.72;;;0.70;;
35959;SDS011;22043;50.970;7.192;2022-09-03T09:26:06;3.22;;;0.75;;
35959;SDS011;22043;50.970;7.192;2022-09-03T09:28:36;2.45;;;0.80;;
35959;SDS011;22043;50.970;7.192;2022-09-03T09:31:03;1.43;;;0.70;;
35959;SDS011;22043;50.970;7.192;2022-09-03T09:33:36;1.35;;;0.70;;
35959;SDS011;22043;50.970;7.192;2022-09-03T09:36:04;1.38;;;0.63;;
35959;SDS011;22043;50.970;7.192;2022-09-03T09:38:37;3.47;;;0.90;;
35959;SDS011;22043;50.970;7.192;2022-09-03T09:41:36;2.72;;;0.85;;
35959;SDS011;22043;50.970;7.192;2022-09-03T09:43:59;1.80;;;0.90;;
35959;SDS011;22043;50.970;7.192;2022-09-03T09:46:27;1.63;;;0.80;;
35959;SDS011;22043;50.970;7.192;2022-09-03T09:49:00;2.67;;;0.80;;
35959;SDS011;22043;50.970;7.192;2022-09-03T09:51:30;2.88;;;0.90;;
35959;SDS011;22043;50.970;7.192;2022-09-03T09:54:00;2.60;;;0.75;;
35959;SDS011;22043;50.970;7.192;2022-09-03T09:56:37;3.28;;;0.80;;
35959;SDS011;22043;50.970;7.192;2022-09-03T09:59:06;2.03;;;0.60;;
35959;SDS011;22043;50.970;7.192;2022-09-03T10:01:41;3.63;;;1.50;;
35959;SDS011;22043;50.970;7.192;2022-09-03T10:04:22;2.88;;;0.93;;
35959;SDS011;22043;50.970;7.192;2022-09-03T10:06:52;1.17;;;0.60;;
35959;SDS011;22043;50.970;7.192;2022-09-03T10:09:30;1.80;;;0.88;;
35959;SDS011;22043;50.970;7.192;2022-09-03T10:12:08;2.53;;;1.00;;
35959;SDS011;22043;50.970;7.192;2022-09-03T10:14:48;2.08;;;0.70;;
35959;SDS011;22043;50.970;7.192;2022-09-03T10:17:41;3.78;;;1.17;;
35959;SDS011;22043;50.970;7.192;2022-09-03T10:23:17;2.33;;;0.80;;
35959;SDS011;22043;50.970;7.192;2022-09-03T10:28:31;3.90;;;0.90;;
35959;SDS011;22043;50.970;7.192;2022-09-03T10:31:12;2.97;;;1.02;;
35959;SDS011;22043;50.970;7.192;2022-09-03T10:33:51;1.83;;;0.90;;
35959;SDS011;22043;50.970;7.192;2022-09-03T10:36:37;2.40;;;0.95;;
35959;SDS011;22043;50.970;7.192;2022-09-03T10:39:12;2.30;;;0.93;;
35959;SDS011;22043;50.970;7.192;2022-09-03T10:41:50;2.60;;;1.00;;
35959;SDS011;22043;50.970;7.192;2022-09-03T10:44:59;2.67;;;1.25;;
35959;SDS011;22043;50.970;7.192;2022-09-03T10:50:22;2.03;;;0.90;;
35959;SDS011;22043;50.970;7.192;2022-09-03T11:01:02;2.10;;;0.95;;
35959;SDS011;22043;50.970;7.192;2022-09-03T11:07:02;1.90;;;0.80;;
35959;SDS011;22043;50.970;7.192;2022-09-03T11:09:35;20.80;;;1.55;;
35959;SDS011;22043;50.970;7.192;2022-09-03T11:12:21;2.30;;;0.93;;
35959;SDS011;22043;50.970;7.192;2022-09-03T11:14:56;2.30;;;1.10;;
35959;SDS011;22043;50.970;7.192;2022-09-03T11:17:39;4.03;;;1.02;;
35959;SDS011;22043;50.970;7.192;2022-09-03T11:20:16;4.20;;;1.10;;
35959;SDS011;22043;50.970;7.192;2022-09-03T11:22:44;7.68;;;1.08;;
35959;SDS011;22043;50.970;7.192;2022-09-03T11:25:13;3.13;;;1.02;;
35959;SDS011;22043;50.970;7.192;2022-09-03T11:30:08;3.05;;;1.20;;
35959;SDS011;22043;50.970;7.192;2022-09-03T11:32:55;2.80;;;0.90;;
35959;SDS011;22043;50.970;7.192;2022-09-03T11:37:59;2.65;;;1.10;;
35959;SDS011;22043;50.970;7.192;2022-09-03T11:43:23;2.63;;;1.05;;
35959;SDS011;22043;50.970;7.192;2022-09-03T11:46:05;2.40;;;1.00;;
35959;SDS011;22043;50.970;7.192;2022-09-03T11:48:44;3.67;;;0.90;;
35959;SDS011;22043;50.970;7.192;2022-09-03T11:54:41;3.88;;;1.38;;
35959;SDS011;22043;50.970;7.192;2022-09-03T11:56:48;4.68;;;1.02;;
35959;SDS011;22043;50.970;7.192;2022-09-03T12:01:57;3.67;;;1.20;;
35959;SDS011;22043;50.970;7.192;2022-09-03T12:04:30;3.85;;;1.10;;
35959;SDS011;22043;50.970;7.192;2022-09-03T12:07:07;2.30;;;0.98;;
35959;SDS011;22043;50.970;7.192;2022-09-03T12:21:08;5.43;;;1.00;;
35959;SDS011;22043;50.970;7.192;2022-09-03T12:26:14;2.92;;;1.10;;
35959;SDS011;22043;50.970;7.192;2022-09-03T12:28:55;4.72;;;1.30;;
35959;SDS011;22043;50.970;7.192;2022-09-03T12:33:50;2.63;;;1.17;;
35959;SDS011;22043;50.970;7.192;2022-09-03T12:36:18;3.78;;;1.50;;
35959;SDS011;22043;50.970;7.192;2022-09-03T12:38:45;2.30;;;1.20;;
35959;SDS011;22043;50.970;7.192;2022-09-03T12:41:18;3.78;;;1.30;;
35959;SDS011;22043;50.970;7.192;2022-09-03T12:43:56;3.97;;;1.10;;
35959;SDS011;22043;50.970;7.192;2022-09-03T12:46:24;4.10;;;1.40;;
35959;SDS011;22043;50.970;7.192;2022-09-03T12:48:55;3.42;;;1.52;;
35959;SDS011;22043;50.970;7.192;2022-09-03T12:51:33;3.38;;;1.50;;
35959;SDS011;22043;50.970;7.192;2022-09-03T12:54:01;4.68;;;1.20;;
35959;SDS011;22043;50.970;7.192;2022-09-03T12:56:29;2.72;;;1.40;;
35959;SDS011;22043;50.970;7.192;2022-09-03T12:58:58;4.13;;;1.70;;
35959;SDS011;22043;50.970;7.192;2022-09-03T13:01:31;2.60;;;1.27;;
35959;SDS011;22043;50.970;7.192;2022-09-03T13:04:09;1.55;;;1.08;;
35959;SDS011;22043;50.970;7.192;2022-09-03T13:09:14;2.45;;;1.30;;
35959;SDS011;22043;50.970;7.192;2022-09-03T13:11:44;2.50;;;1.40;;
35959;SDS011;22043;50.970;7.192;2022-09-03T13:14:11;3.03;;;1.15;;
35959;SDS011;22043;50.970;7.192;2022-09-03T13:21:47;2.60;;;1.13;;
35959;SDS011;22043;50.970;7.192;2022-09-03T13:27:20;2.92;;;1.30;;
35959;SDS011;22043;50.970;7.192;2022-09-03T13:30:15;3.35;;;1.40;;
35959;SDS011;22043;50.970;7.192;2022-09-03T13:40:34;2.72;;;1.60;;
35959;SDS011;22043;50.970;7.192;2022-09-03T13:45:44;3.30;;;1.70;;
35959;SDS011;22043;50.970;7.192;2022-09-03T13:51:27;1.67;;;1.00;;
35959;SDS011;22043;50.970;7.192;2022-09-03T13:54:16;2.25;;;1.50;;
35959;SDS011;22043;50.970;7.192;2022-09-03T13:59:35;2.97;;;1.73;;
35959;SDS011;22043;50.970;7.192;2022-09-03T14:05:08;4.53;;;1.40;;
35959;SDS011;22043;50.970;7.192;2022-09-03T14:07:56;4.07;;;1.90;;
35959;SDS011;22043;50.970;7.192;2022-09-03T14:15:58;3.42;;;1.30;;
35959;SDS011;22043;50.970;7.192;2022-09-03T14:24:00;1.77;;;1.20;;
35959;SDS011;22043;50.970;7.192;2022-09-03T14:26:30;2.83;;;1.20;;
35959;SDS011;22043;50.970;7.192;2022-09-03T14:29:03;2.25;;;1.20;;
35959;SDS011;22043;50.970;7.192;2022-09-03T14:36:56;3.50;;;1.23;;
35959;SDS011;22043;50.970;7.192;2022-09-03T14:39:33;2.88;;;1.30;;
35959;SDS011;22043;50.970;7.192;2022-09-03T14:42:39;3.17;;;1.20;;
35959;SDS011;22043;50.970;7.192;2022-09-03T14:45:23;1.85;;;1.00;;
35959;SDS011;22043;50.970;7.192;2022-09-03T14:48:06;3.03;;;1.40;;
35959;SDS011;22043;50.970;7.192;2022-09-03T14:56:35;2.97;;;1.33;;
35959;SDS011;22043;50.970;7.192;2022-09-03T15:01:52;2.28;;;0.93;;
35959;SDS011;22043;50.970;7.192;2022-09-03T15:04:37;2.13;;;1.00;;
35959;SDS011;22043;50.970;7.192;2022-09-03T15:10:11;2.42;;;1.27;;
35959;SDS011;22043;50.970;7.192;2022-09-03T15:12:56;2.70;;;1.25;;
35959;SDS011;22043;50.970;7.192;2022-09-03T15:15:30;2.25;;;1.13;;
35959;SDS011;22043;50.970;7.192;2022-09-03T15:18:13;3.97;;;1.65;;
35959;SDS011;22043;50.970;7.192;2022-09-03T15:23:19;1.70;;;0.90;;
35959;SDS011;22043;50.970;7.192;2022-09-03T15:28:18;4.00;;;1.30;;
35959;SDS011;22043;50.970;7.192;2022-09-03T15:33:48;2.17;;;1.20;;
35959;SDS011;22043;50.970;7.192;2022-09-03T15:36:21;2.13;;;1.20;;
35959;SDS011;22043;50.970;7.192;2022-09-03T15:39:15;1.35;;;0.75;;
35959;SDS011;22043;50.970;7.192;2022-09-03T15:41:52;1.52;;;0.95;;
35959;SDS011;22043;50.970;7.192;2022-09-03T15:44:22;2.90;;;1.15;;
35959;SDS011;22043;50.970;7.192;2022-09-03T15:46:58;2.70;;;1.73;;
35959;SDS011;22043;50.970;7.192;2022-09-03T15:49:30;6.03;;;1.45;;
35959;SDS011;22043;50.970;7.192;2022-09-03T15:58:23;2.20;;;1.08;;
35959;SDS011;22043;50.970;7.192;2022-09-03T16:00:55;2.80;;;1.10;;
35959;SDS011;22043;50.970;7.192;2022-09-03T16:09:35;1.73;;;1.02;;
35959;SDS011;22043;50.970;7.192;2022-09-03T16:14:59;1.92;;;1.08;;
35959;SDS011;22043;50.970;7.192;2022-09-03T16:22:56;3.75;;;1.15;;
35959;SDS011;22043;50.970;7.192;2022-09-03T16:25:43;2.67;;;1.00;;
35959;SDS011;22043;50.970;7.192;2022-09-03T16:28:24;2.80;;;1.10;;
35959;SDS011;22043;50.970;7.192;2022-09-03T16:42:13;2.50;;;1.08;;
35959;SDS011;22043;50.970;7.192;2022-09-03T16:50:30;4.05;;;1.65;;
35959;SDS011;22043;50.970;7.192;2022-09-03T16:53:27;6.10;;;1.80;;
35959;SDS011;22043;50.970;7.192;2022-09-03T16:58:59;6.55;;;2.83;;
35959;SDS011;22043;50.970;7.192;2022-09-03T17:23:55;5.25;;;3.00;;
35959;SDS011;22043;50.970;7.192;2022-09-03T17:26:55;8.73;;;4.50;;
35959;SDS011;22043;50.970;7.192;2022-09-03T17:38:02;10.43;;;3.10;;
35959;SDS011;22043;50.970;7.192;2022-09-03T17:46:04;4.88;;;2.42;;
35959;SDS011;22043;50.970;7.192;2022-09-03T17:56:45;3.20;;;1.67;;
35959;SDS011;22043;50.970;7.192;2022-09-03T17:59:35;2.97;;;1.90;;
35959;SDS011;22043;50.970;7.192;2022-09-03T18:02:16;3.33;;;1.60;;
35959;SDS011;22043;50.970;7.192;2022-09-03T18:07:36;3.78;;;1.70;;
35959;SDS011;22043;50.970;7.192;2022-09-03T18:10:24;2.92;;;1.92;;
35959;SDS011;22043;50.970;7.192;2022-09-03T18:18:27;6.10;;;3.20;;
35959;SDS011;22043;50.970;7.192;2022-09-03T18:20:58;4.82;;;2.85;;
35959;SDS011;22043;50.970;7.192;2022-09-03T18:23:53;3.78;;;2.50;;
35959;SDS011;22043;50.970;7.192;2022-09-03T18:26:48;4.05;;;2.50;;
35959;SDS011;22043;50.970;7.192;2022-09-03T18:30:11;3.92;;;2.47;;
35959;SDS011;22043;50.970;7.192;2022-09-03T18:32:50;5.45;;;2.78;;
35959;SDS011;22043;50.970;7.192;2022-09-03T18:35:35;4.20;;;2.90;;
35959;SDS011;22043;50.970;7.192;2022-09-03T18:38:26;6.57;;;3.25;;
35959;SDS011;22043;50.970;7.192;2022-09-03T18:44:33;5.10;;;2.50;;
35959;SDS011;22043;50.970;7.192;2022-09-03T18:47:35;3.92;;;2.50;;
35959;SDS011;22043;50.970;7.192;2022-09-03T18:50:34;6.25;;;2.65;;
35959;SDS011;22043;50.970;7.192;2022-09-03T18:56:34;3.38;;;2.22;;
35959;SDS011;22043;50.970;7.192;2022-09-03T19:15:19;3.45;;;2.33;;
35959;SDS011;22043;50.970;7.192;2022-09-03T19:21:42;4.53;;;2.55;;
35959;SDS011;22043;50.970;7.192;2022-09-03T19:24:32;5.00;;;2.45;;
35959;SDS011;22043;50.970;7.192;2022-09-03T19:27:30;3.10;;;2.05;;
35959;SDS011;22043;50.970;7.192;2022-09-03T19:33:35;3.60;;;1.88;;
35959;SDS011;22043;50.970;7.192;2022-09-03T19:36:26;3.83;;;2.42;;
35959;SDS011;22043;50.970;7.192;2022-09-03T19:39:41;5.60;;;2.58;;
35959;SDS011;22043;50.970;7.192;2022-09-03T19:54:57;4.40;;;2.85;;
35959;SDS011;22043;50.970;7.192;2022-09-03T19:57:43;5.72;;;3.00;;
35959;SDS011;22043;50.970;7.192;2022-09-03T20:00:31;4.53;;;2.70;;
35959;SDS011;22043;50.970;7.192;2022-09-03T20:03:16;4.20;;;2.47;;
35959;SDS011;22043;50.970;7.192;2022-09-03T20:06:01;5.68;;;2.70;;
35959;SDS011;22043;50.970;7.192;2022-09-03T20:08:48;3.83;;;2.85;;
35959;SDS011;22043;50.970;7.192;2022-09-03T20:11:33;4.57;;;2.88;;
35959;SDS011;22043;50.970;7.192;2022-09-03T20:14:01;4.25;;;3.28;;
35959;SDS011;22043;50.970;7.192;2022-09-03T20:16:55;5.30;;;3.40;;
35959;SDS011;22043;50.970;7.192;2022-09-03T20:25:40;3.63;;;2.42;;
35959;SDS011;22043;50.970;7.192;2022-09-03T20:35:53;6.05;;;3.08;;
35959;SDS011;22043;50.970;7.192;2022-09-03T20:42:09;5.63;;;3.40;;
35959;SDS011;22043;50.970;7.192;2022-09-03T20:55:48;5.40;;;3.47;;
35959;SDS011;22043;50.970;7.192;2022-09-03T21:01:37;4.55;;;3.13;;
35959;SDS011;22043;50.970;7.192;2022-09-03T21:09:19;5.47;;;3.38;;
35959;SDS011;22043;50.970;7.192;2022-09-03T21:14:58;6.07;;;3.80;;
35959;SDS011;22043;50.970;7.192;2022-09-03T21:20:16;3.97;;;2.85;;
35959;SDS011;22043;50.970;7.192;2022-09-03T21:25:53;4.80;;;3.47;;
35959;SDS011;22043;50.970;7.192;2022-09-03T21:29:25;5.20;;;3.85;;
35959;SDS011;22043;50.970;7.192;2022-09-03T21:34:18;5.63;;;3.90;;
35959;SDS011;22043;50.970;7.192;2022-09-03T21:36:50;4.80;;;3.17;;
35959;SDS011;22043;50.970;7.192;2022-09-03T21:39:20;6.68;;;3.92;;
35959;SDS011;22043;50.970;7.192;2022-09-03T21:41:59;4.93;;;3.70;;
35959;SDS011;22043;50.970;7.192;2022-09-03T21:47:09;7.45;;;3.70;;
35959;SDS011;22043;50.970;7.192;2022-09-03T21:49:39;4.72;;;3.53;;
35959;SDS011;22043;50.970;7.192;2022-09-03T21:52:46;5.00;;;3.65;;
35959;SDS011;22043;50.970;7.192;2022-09-03T21:55:17;4.95;;;3.60;;
35959;SDS011;22043;50.970;7.192;2022-09-03T21:58:17;5.25;;;3.25;;
35959;SDS011;22043;50.970;7.192;2022-09-03T22:01:10;5.30;;;3.45;;